Time;durP1;ratioP1;P1;durP2;ratioP2;P2;SDS_P1;SDS_P2;PMS_P1;PMS_P2;Temp;Humidity;BMP_temperature;BMP_pressure;BME280_temperature;BME280_humidity;BME280_pressure;Samples;Min_cycle;Max_cycle;Signal;HPM_P1;HPM_P2
2021/06/01 00:01:56;;;;;;;2.27;1.80;;;10.90;99.90;;;;;;1975679;72;21138;-80
2021/06/01 00:04:22;;;;;;;3.72;1.70;;;10.80;99.90;;;;;;1973371;72;21132;-81
2021/06/01 00:06:48;;;;;;;1.92;1.55;;;10.70;99.90;;;;;;1975721;72;21124;-80
2021/06/01 00:09:15;;;;;;;1.57;1.35;;;10.70;99.90;;;;;;1974470;72;21091;-80
2021/06/01 00:11:41;;;;;;;3.55;1.40;;;10.70;99.90;;;;;;1973180;73;21167;-80
2021/06/01 00:14:07;;;;;;;2.25;1.65;;;10.70;99.90;;;;;;1974443;72;21134;-80
2021/06/01 00:16:33;;;;;;;1.62;1.47;;;10.60;99.90;;;;;;1973467;72;21058;-79
2021/06/01 00:18:59;;;;;;;2.72;1.50;;;10.60;99.90;;;;;;1974030;72;21077;-80
2021/06/01 00:21:25;;;;;;;3.58;1.77;;;10.60;99.90;;;;;;1972824;73;21051;-79
2021/06/01 00:23:55;;;;;;;3.12;2.12;;;10.50;99.90;;;;;;1972940;73;21243;-80
2021/06/01 00:26:21;;;;;;;3.20;1.75;;;10.50;99.90;;;;;;1972889;73;21500;-80
2021/06/01 00:28:47;;;;;;;1.55;1.45;;;10.50;99.90;;;;;;1972852;73;21513;-79
2021/06/01 00:31:13;;;;;;;8.35;1.65;;;10.40;99.90;;;;;;1973116;73;21514;-76
2021/06/01 00:33:39;;;;;;;2.75;1.42;;;10.40;99.90;;;;;;1972762;73;21020;-80
2021/06/01 00:36:05;;;;;;;2.72;1.35;;;10.40;99.90;;;;;;1972807;73;21471;-80
2021/06/01 00:38:31;;;;;;;2.47;1.87;;;10.40;99.90;;;;;;1972783;73;21515;-79
2021/06/01 00:40:57;;;;;;;1.65;1.40;;;10.30;99.90;;;;;;1972813;73;21102;-80
2021/06/01 00:43:23;;;;;;;1.82;1.50;;;10.30;99.90;;;;;;1972800;73;21076;-80
2021/06/01 00:45:50;;;;;;;2.95;1.80;;;10.30;99.90;;;;;;1972664;73;21128;-80
2021/06/01 00:48:16;;;;;;;3.67;1.80;;;10.20;99.90;;;;;;1972902;73;21048;-80
2021/06/01 00:50:42;;;;;;;1.67;1.57;;;10.10;99.90;;;;;;1972766;73;21140;-79
2021/06/01 00:53:08;;;;;;;1.80;1.47;;;10.10;99.90;;;;;;1972739;73;21080;-80
2021/06/01 00:55:34;;;;;;;4.28;1.70;;;10.10;99.90;;;;;;1972679;73;21059;-80
2021/06/01 00:58:00;;;;;;;3.27;1.75;;;10.00;99.90;;;;;;1972741;73;21103;-80
2021/06/01 01:00:48;;;;;;;1.47;1.37;;;9.90;99.90;;;;;;1972701;73;21079;-80
2021/06/01 01:02:57;;;;;;;3.00;1.60;;;9.90;99.90;;;;;;1978016;71;21088;-80
2021/06/01 01:05:32;;;;;;;1.65;1.55;;;9.90;99.90;;;;;;1972675;73;21059;-79
2021/06/01 01:08:04;;;;;;;3.87;2.12;;;9.80;99.90;;;;;;1974156;71;21084;-80
2021/06/01 01:10:19;;;;;;;1.72;1.60;;;9.80;99.90;;;;;;1976027;71;21530;-80
2021/06/01 01:12:45;;;;;;;2.72;1.70;;;9.80;99.90;;;;;;1972632;73;21243;-80
2021/06/01 01:15:11;;;;;;;3.90;1.67;;;9.70;99.90;;;;;;1972664;73;21088;-80
2021/06/01 01:17:37;;;;;;;4.42;2.10;;;9.70;99.90;;;;;;1972556;73;21036;-80
2021/06/01 01:20:04;;;;;;;3.80;2.30;;;9.70;99.90;;;;;;1972817;73;21062;-80
2021/06/01 01:22:31;;;;;;;2.20;1.77;;;9.60;99.90;;;;;;1972736;73;21561;-79
2021/06/01 01:24:57;;;;;;;2.55;1.95;;;9.60;99.90;;;;;;1972895;73;21122;-80
2021/06/01 01:27:23;;;;;;;4.50;2.15;;;9.60;99.90;;;;;;1972738;73;21534;-80
2021/06/01 01:29:49;;;;;;;2.60;1.72;;;9.50;99.90;;;;;;1972734;72;21142;-80
2021/06/01 01:32:15;;;;;;;4.50;2.08;;;9.40;99.90;;;;;;1972774;73;21121;-80
2021/06/01 01:34:41;;;;;;;1.87;1.72;;;9.30;99.90;;;;;;1972744;73;21067;-80
2021/06/01 01:37:07;;;;;;;2.25;1.75;;;9.30;99.90;;;;;;1972774;73;21036;-79
2021/06/01 01:39:39;;;;;;;2.10;1.72;;;9.30;99.90;;;;;;1972844;73;21449;-80
2021/06/01 01:42:01;;;;;;;1.82;1.62;;;9.20;99.90;;;;;;1973848;71;21146;-80
2021/06/01 01:44:31;;;;;;;3.98;1.55;;;9.20;99.90;;;;;;1972848;73;21084;-80
2021/06/01 01:47:06;;;;;;;1.90;1.70;;;9.10;99.90;;;;;;1973161;71;21096;-80
2021/06/01 01:49:23;;;;;;;5.28;1.82;;;9.10;99.90;;;;;;1975146;71;21184;-80
2021/06/01 01:51:49;;;;;;;2.02;1.75;;;9.10;99.90;;;;;;1973004;73;21088;-80
2021/06/01 01:54:15;;;;;;;1.32;1.27;;;9.00;99.90;;;;;;1972913;73;21052;-80
2021/06/01 01:56:42;;;;;;;1.55;1.35;;;9.00;99.90;;;;;;1973087;73;21035;-80
2021/06/01 01:59:09;;;;;;;4.55;1.35;;;9.00;99.90;;;;;;1973091;73;21039;-81
2021/06/01 02:01:35;;;;;;;1.60;1.42;;;8.90;99.90;;;;;;1973133;73;21040;-79
2021/06/01 02:04:01;;;;;;;2.75;1.60;;;8.90;99.90;;;;;;1973083;73;21087;-79
2021/06/01 02:06:27;;;;;;;1.62;1.52;;;8.90;99.90;;;;;;1973147;73;21089;-79
2021/06/01 02:08:53;;;;;;;1.42;1.30;;;8.90;99.90;;;;;;1972904;73;21133;-80
2021/06/01 02:11:20;;;;;;;1.80;1.70;;;8.90;99.90;;;;;;1972933;73;21076;-80
2021/06/01 02:13:47;;;;;;;2.10;1.75;;;8.80;99.90;;;;;;1972879;73;21040;-79
2021/06/01 02:16:13;;;;;;;2.37;2.00;;;8.80;99.90;;;;;;1975175;72;21181;-79
2021/06/01 02:18:39;;;;;;;2.75;2.10;;;8.70;99.90;;;;;;1973479;72;21031;-80
2021/06/01 02:21:05;;;;;;;3.50;2.10;;;8.70;99.90;;;;;;1974520;72;21141;-80
2021/06/01 02:23:50;;;;;;;3.12;2.33;;;8.70;99.90;;;;;;2008940;71;21140;-80
2021/06/01 02:26:03;;;;;;;3.30;2.10;;;8.70;99.90;;;;;;1973396;71;21189;-80
2021/06/01 02:28:29;;;;;;;6.78;2.42;;;8.70;99.90;;;;;;1973905;72;21064;-80
2021/06/01 02:30:55;;;;;;;1.90;1.72;;;8.60;99.90;;;;;;1973286;73;21091;-79
2021/06/01 02:33:21;;;;;;;3.22;1.67;;;8.60;99.90;;;;;;1974457;73;21121;-77
2021/06/01 02:35:47;;;;;;;1.72;1.50;;;8.60;99.90;;;;;;1975961;73;21175;-77
2021/06/01 02:38:13;;;;;;;2.65;1.90;;;8.50;99.90;;;;;;1976376;73;21127;-78
2021/06/01 02:40:39;;;;;;;2.72;1.37;;;8.50;99.90;;;;;;1976483;73;21032;-77
2021/06/01 02:43:06;;;;;;;2.67;1.87;;;8.50;99.90;;;;;;1974089;73;21126;-78
2021/06/01 02:45:35;;;;;;;2.60;1.62;;;8.40;99.90;;;;;;1972830;73;21060;-76
2021/06/01 02:47:59;;;;;;;1.80;1.70;;;8.30;99.90;;;;;;1973406;71;21468;-79
2021/06/01 02:50:26;;;;;;;2.12;1.72;;;8.20;99.90;;;;;;1972647;73;21416;-78
2021/06/01 02:52:52;;;;;;;2.50;2.00;;;8.10;99.90;;;;;;1972667;73;21484;-78
2021/06/01 02:55:18;;;;;;;2.10;1.90;;;8.20;99.90;;;;;;1972616;73;21453;-79
2021/06/01 02:57:44;;;;;;;5.65;2.35;;;8.20;99.90;;;;;;1972668;73;21054;-79
2021/06/01 03:00:10;;;;;;;3.42;2.22;;;8.20;99.90;;;;;;1972581;73;21136;-79
2021/06/01 03:02:36;;;;;;;2.33;2.12;;;8.20;99.90;;;;;;1972554;73;21136;-79
2021/06/01 03:05:02;;;;;;;3.58;2.55;;;8.20;99.90;;;;;;1972563;73;21132;-79
2021/06/01 03:07:28;;;;;;;3.70;2.10;;;8.10;99.90;;;;;;1972576;73;21000;-79
2021/06/01 03:09:55;;;;;;;2.92;2.17;;;8.10;99.90;;;;;;1972670;73;21055;-79
2021/06/01 03:12:46;;;;;;;2.60;2.40;;;8.10;99.90;;;;;;1972617;73;21104;-79
2021/06/01 03:14:51;;;;;;;;;;;8.10;99.90;;;;;;1977926;71;21227;-78
2021/06/01 03:17:17;;;;;;;2.52;1.82;;;8.00;99.90;;;;;;1972552;73;20144;-79
2021/06/01 03:19:43;;;;;;;2.02;1.80;;;8.10;99.90;;;;;;1972687;73;21238;-79
2021/06/01 03:22:09;;;;;;;2.37;1.90;;;8.00;99.90;;;;;;1972729;73;21084;-79
2021/06/01 03:24:36;;;;;;;2.65;1.70;;;8.00;99.90;;;;;;1972707;73;21244;-79
2021/06/01 03:27:02;;;;;;;3.12;2.20;;;8.00;99.90;;;;;;1972713;73;21149;-78
2021/06/01 03:29:28;;;;;;;6.12;2.33;;;8.00;99.90;;;;;;1972722;73;21066;-79
2021/06/01 03:31:54;;;;;;;2.92;2.47;;;7.90;99.90;;;;;;1972708;73;21076;-79
2021/06/01 03:34:22;;;;;;;3.08;2.15;;;7.90;99.90;;;;;;1972747;73;21057;-79
2021/06/01 03:36:48;;;;;;;2.67;2.37;;;7.90;99.90;;;;;;1972676;72;21558;-79
2021/06/01 03:39:15;;;;;;;2.85;2.52;;;7.90;99.90;;;;;;1972716;73;21161;-79
2021/06/01 03:41:42;;;;;;;5.67;2.77;;;7.80;99.90;;;;;;1972735;73;21103;-79
2021/06/01 03:44:08;;;;;;;3.95;3.00;;;7.80;99.90;;;;;;1972820;73;21496;-78
2021/06/01 03:46:34;;;;;;;4.83;3.10;;;7.80;99.90;;;;;;1972785;72;21088;-79
2021/06/01 03:49:01;;;;;;;4.90;2.77;;;7.90;99.90;;;;;;1972881;73;21051;-80
2021/06/01 03:51:27;;;;;;;3.75;2.83;;;7.90;99.90;;;;;;1972706;73;21071;-79
2021/06/01 03:53:53;;;;;;;3.77;3.15;;;7.90;99.90;;;;;;1972643;73;21535;-79
2021/06/01 03:56:19;;;;;;;2.72;2.50;;;7.90;99.90;;;;;;1972778;73;21054;-79
2021/06/01 03:58:45;;;;;;;3.60;2.55;;;7.90;99.90;;;;;;1972726;73;21054;-81
2021/06/01 04:01:11;;;;;;;2.52;1.95;;;7.90;99.90;;;;;;1972811;73;21150;-81
2021/06/01 04:03:41;;;;;;;3.02;2.70;;;7.90;99.90;;;;;;1972874;73;21047;-79
2021/06/01 04:06:07;;;;;;;4.40;2.40;;;7.80;99.90;;;;;;1973005;73;21147;-80
2021/06/01 04:08:33;;;;;;;3.00;2.50;;;7.80;99.90;;;;;;1972781;73;21120;-80
2021/06/01 04:10:59;;;;;;;8.48;2.00;;;7.80;99.90;;;;;;1972749;73;21079;-80
2021/06/01 04:13:25;;;;;;;2.42;2.10;;;7.80;99.90;;;;;;1972789;73;21092;-79
2021/06/01 04:15:52;;;;;;;3.87;2.60;;;7.90;99.90;;;;;;1973864;72;21487;-80
2021/06/01 04:18:18;;;;;;;3.37;2.52;;;7.90;99.90;;;;;;1972807;73;21471;-78
2021/06/01 04:20:44;;;;;;;3.90;2.50;;;7.80;99.90;;;;;;1972854;73;21500;-79
2021/06/01 04:23:10;;;;;;;2.90;2.22;;;7.80;99.90;;;;;;1972967;73;21467;-79
2021/06/01 04:25:36;;;;;;;2.02;1.82;;;7.90;99.90;;;;;;1972788;73;21173;-79
2021/06/01 04:28:02;;;;;;;3.10;2.60;;;7.90;99.90;;;;;;1972820;73;21035;-80
2021/06/01 04:30:28;;;;;;;6.72;3.50;;;8.00;99.90;;;;;;1972840;73;21124;-79
2021/06/01 04:32:54;;;;;;;5.22;3.15;;;8.00;99.90;;;;;;1974415;72;21140;-80
2021/06/01 04:35:21;;;;;;;2.92;2.65;;;8.10;99.90;;;;;;1977469;72;21023;-79
2021/06/01 04:37:47;;;;;;;3.25;2.92;;;8.10;99.90;;;;;;1973874;72;21063;-81
2021/06/01 04:40:14;;;;;;;5.40;2.77;;;8.10;99.90;;;;;;1972901;73;21055;-80
2021/06/01 04:42:41;;;;;;;5.62;2.62;;;8.10;99.90;;;;;;1972906;73;21071;-80
2021/06/01 04:45:07;;;;;;;5.47;2.92;;;8.20;99.90;;;;;;1972795;73;21185;-80
2021/06/01 04:47:33;;;;;;;3.08;2.75;;;8.20;99.90;;;;;;1972718;73;21114;-80
2021/06/01 04:50:01;;;;;;;3.25;2.92;;;8.30;99.90;;;;;;1972788;73;21020;-81
2021/06/01 04:52:27;;;;;;;5.97;3.22;;;8.30;99.90;;;;;;1972719;73;21068;-79
2021/06/01 04:54:53;;;;;;;3.83;3.08;;;8.30;99.90;;;;;;1972723;73;21088;-80
2021/06/01 04:57:19;;;;;;;3.80;2.62;;;8.40;99.90;;;;;;1972711;73;21051;-80
2021/06/01 04:59:46;;;;;;;3.65;3.00;;;8.30;99.90;;;;;;1972914;73;21055;-78
2021/06/01 05:02:12;;;;;;;4.10;2.95;;;8.40;99.90;;;;;;1972797;72;21132;-80
2021/06/01 05:04:38;;;;;;;3.58;2.60;;;8.40;99.90;;;;;;1972648;73;21149;-79
2021/06/01 05:07:04;;;;;;;3.40;2.85;;;8.40;99.90;;;;;;1972679;73;21126;-79
2021/06/01 05:09:30;;;;;;;7.62;2.85;;;8.50;99.90;;;;;;1972611;73;21565;-78
2021/06/01 05:11:56;;;;;;;6.00;2.67;;;8.60;99.90;;;;;;1972742;73;21485;-79
2021/06/01 05:14:22;;;;;;;4.12;2.92;;;8.70;99.90;;;;;;1972715;73;21500;-78
2021/06/01 05:16:49;;;;;;;4.50;3.20;;;8.80;99.90;;;;;;1972745;73;21055;-78
2021/06/01 05:19:15;;;;;;;6.10;2.95;;;9.00;99.90;;;;;;1972780;73;21116;-78
2021/06/01 05:21:41;;;;;;;3.60;2.72;;;9.40;99.90;;;;;;1972837;73;21016;-78
2021/06/01 05:24:07;;;;;;;4.42;2.58;;;10.20;99.90;;;;;;1972766;73;21144;-79
2021/06/01 05:26:33;;;;;;;2.60;1.98;;;11.90;99.90;;;;;;1972597;73;21529;-81
2021/06/01 05:28:59;;;;;;;3.55;2.08;;;14.00;99.90;;;;;;1972719;73;21524;-80
2021/06/01 05:31:31;;;;;;;2.08;1.95;;;15.30;99.90;;;;;;1972637;73;21165;-81
2021/06/01 05:34:02;;;;;;;1.50;1.32;;;15.80;99.90;;;;;;1973881;71;21220;-78
2021/06/01 05:36:27;;;;;;;5.75;2.30;;;15.70;99.90;;;;;;1972817;71;21073;-78
2021/06/01 05:38:54;;;;;;;2.65;1.92;;;14.90;99.90;;;;;;1972806;73;21126;-80
2021/06/01 05:41:21;;;;;;;3.42;1.95;;;15.00;99.90;;;;;;1972633;73;21051;-79
2021/06/01 05:43:47;;;;;;;2.17;1.70;;;14.80;99.90;;;;;;1972698;73;21157;-81
2021/06/01 05:46:13;;;;;;;1.30;1.15;;;14.90;99.90;;;;;;1972649;73;21072;-78
2021/06/01 05:48:39;;;;;;;2.20;1.77;;;16.20;99.90;;;;;;1972567;73;21008;-77
2021/06/01 05:51:05;;;;;;;3.75;1.80;;;16.40;99.90;;;;;;1972740;73;21176;-78
2021/06/01 05:53:32;;;;;;;2.35;1.57;;;17.30;99.90;;;;;;1972486;73;21159;-76
2021/06/01 05:55:58;;;;;;;1.90;1.60;;;18.20;99.90;;;;;;1972680;73;21125;-78
2021/06/01 05:58:24;;;;;;;2.15;1.40;;;19.20;99.90;;;;;;1972551;73;21102;-78
2021/06/01 06:00:50;;;;;;;4.70;1.95;;;20.20;99.90;;;;;;1972800;73;21125;-78
2021/06/01 06:03:16;;;;;;;5.72;1.60;;;21.50;99.90;;;;;;1972471;73;21128;-79
2021/06/01 06:05:42;;;;;;;4.37;1.60;;;21.60;99.90;;;;;;1972654;73;21072;-80
2021/06/01 06:08:08;;;;;;;2.80;1.40;;;21.30;99.90;;;;;;1972625;73;21133;-79
2021/06/01 06:10:34;;;;;;;6.42;1.60;;;21.80;99.90;;;;;;1972716;73;21136;-79
2021/06/01 06:13:01;;;;;;;3.22;1.50;;;21.80;99.90;;;;;;1972621;73;21121;-79
2021/06/01 06:15:28;;;;;;;2.62;1.57;;;22.10;99.90;;;;;;1972638;73;21574;-78
2021/06/01 06:17:54;;;;;;;1.47;1.37;;;22.30;99.30;;;;;;1972914;73;21098;-79
2021/06/01 06:20:20;;;;;;;2.75;1.65;;;22.00;99.20;;;;;;1973130;73;21084;-79
2021/06/01 06:22:46;;;;;;;2.58;1.25;;;22.00;98.20;;;;;;1973219;73;21076;-79
2021/06/01 06:25:12;;;;;;;3.17;1.75;;;22.30;98.10;;;;;;1973080;72;21490;-79
2021/06/01 06:27:38;;;;;;;2.40;1.60;;;22.60;96.10;;;;;;1973126;73;21424;-79
2021/06/01 06:30:05;;;;;;;8.33;1.70;;;22.60;95.80;;;;;;1973158;73;21480;-79
2021/06/01 06:32:31;;;;;;;2.12;1.12;;;22.90;95.50;;;;;;1973122;73;21463;-79
2021/06/01 06:34:57;;;;;;;2.85;1.47;;;23.10;94.20;;;;;;1973158;73;21559;-78
2021/06/01 06:37:23;;;;;;;4.72;1.75;;;23.10;93.80;;;;;;1973095;73;21024;-78
2021/06/01 06:39:49;;;;;;;2.25;1.55;;;22.80;94.30;;;;;;1973118;73;21047;-79
2021/06/01 06:42:17;;;;;;;2.42;1.70;;;22.70;94.80;;;;;;1973131;73;21047;-79
2021/06/01 06:44:44;;;;;;;1.62;1.40;;;21.70;95.40;;;;;;1973140;73;21506;-78
2021/06/01 06:49:38;;;;;;;1.92;1.25;;;22.20;96.00;;;;;;1973111;73;21080;-77
2021/06/01 06:52:04;;;;;;;4.65;1.25;;;22.30;95.20;;;;;;1973088;73;21164;-77
2021/06/01 06:54:30;;;;;;;7.10;1.60;;;23.10;92.30;;;;;;1973125;73;21063;-77
2021/06/01 06:56:56;;;;;;;2.83;1.20;;;22.70;92.30;;;;;;1974284;72;21062;-76
2021/06/01 06:59:22;;;;;;;4.20;1.30;;;22.80;91.70;;;;;;1973144;73;21023;-77
2021/06/01 07:01:48;;;;;;;3.02;1.52;;;22.70;92.90;;;;;;1972077;72;21059;-79
2021/06/01 07:04:15;;;;;;;1.77;1.20;;;23.30;91.80;;;;;;1973077;73;21106;-79
2021/06/01 07:06:41;;;;;;;1.75;1.42;;;24.00;90.20;;;;;;1974203;72;21129;-79
2021/06/01 07:09:07;;;;;;;2.10;1.50;;;24.40;89.10;;;;;;1973149;73;21044;-79
2021/06/01 07:11:33;;;;;;;5.00;1.42;;;23.20;88.40;;;;;;1973113;73;21133;-79
2021/06/01 07:13:59;;;;;;;1.20;1.10;;;23.00;91.10;;;;;;1973126;73;21552;-79
2021/06/01 07:16:25;;;;;;;1.37;1.20;;;22.80;90.90;;;;;;1973136;73;21140;-79
2021/06/01 07:18:51;;;;;;;3.55;1.10;;;23.10;88.60;;;;;;1973055;73;21067;-78
2021/06/01 07:21:18;;;;;;;2.30;1.10;;;22.40;86.50;;;;;;1973064;73;20992;-78
2021/06/01 07:23:44;;;;;;;3.90;1.05;;;21.70;88.10;;;;;;1973043;73;21172;-78
2021/06/01 07:26:10;;;;;;;13.20;0.80;;;21.90;88.50;;;;;;1973092;73;21019;-77
2021/06/01 07:28:36;;;;;;;1.02;0.70;;;21.10;89.60;;;;;;1973447;73;21092;-77
2021/06/01 07:31:02;;;;;;;2.45;1.07;;;20.50;90.80;;;;;;1974483;73;21055;-78
2021/06/01 07:33:28;;;;;;;2.00;0.95;;;20.60;90.30;;;;;;1975995;73;21036;-77
2021/06/01 07:35:55;;;;;;;2.15;0.80;;;20.50;90.70;;;;;;1972995;73;21115;-78
2021/06/01 07:38:21;;;;;;;1.07;0.90;;;21.20;90.40;;;;;;1973011;73;21063;-78
2021/06/01 07:40:47;;;;;;;1.42;0.80;;;21.50;88.40;;;;;;1973100;73;21121;-78
2021/06/01 07:43:13;;;;;;;4.17;0.90;;;21.20;89.40;;;;;;1973067;73;21055;-79
2021/06/01 07:45:39;;;;;;;1.05;0.80;;;21.60;89.30;;;;;;1973105;73;21059;-78
2021/06/01 07:48:07;;;;;;;1.32;0.93;;;21.20;89.20;;;;;;2011068;71;21055;-78
2021/06/01 07:50:33;;;;;;;1.25;0.85;;;21.00;86.50;;;;;;1972910;73;21055;-77
2021/06/01 07:52:59;;;;;;;4.37;1.00;;;21.00;88.30;;;;;;1973137;73;21246;-76
2021/06/01 07:55:25;;;;;;;0.98;0.60;;;20.90;87.60;;;;;;1972921;73;21052;-78
2021/06/01 07:57:53;;;;;;;1.72;0.82;;;21.00;87.50;;;;;;1973099;73;21062;-77
2021/06/01 08:00:21;;;;;;;1.42;0.90;;;21.00;86.20;;;;;;1972921;73;21492;-79
2021/06/01 08:02:47;;;;;;;1.52;0.80;;;20.90;88.80;;;;;;1973013;71;21099;-78
2021/06/01 08:05:16;;;;;;;1.57;0.85;;;21.20;87.60;;;;;;1973134;73;21067;-79
2021/06/01 08:07:41;;;;;;;0.85;0.82;;;21.30;88.10;;;;;;1972924;71;21040;-79
2021/06/01 08:10:07;;;;;;;1.65;0.95;;;20.90;85.40;;;;;;1973076;73;21136;-78
2021/06/01 08:12:34;;;;;;;0.80;0.80;;;21.20;87.10;;;;;;1973035;73;21055;-76
2021/06/01 08:15:01;;;;;;;2.45;0.95;;;20.90;87.30;;;;;;1973071;73;21051;-79
2021/06/01 08:17:27;;;;;;;2.58;1.00;;;21.30;87.10;;;;;;1973237;73;21153;-78
2021/06/01 08:19:55;;;;;;;9.40;0.80;;;21.70;86.00;;;;;;1973193;73;21071;-77
2021/06/01 08:24:51;;;;;;;2.55;0.95;;;21.90;76.50;;;;;;1973178;73;21480;-77
2021/06/01 08:27:17;;;;;;;1.60;0.82;;;21.70;77.80;;;;;;1973201;73;21588;-77
2021/06/01 08:29:44;;;;;;;1.30;0.90;;;21.20;78.00;;;;;;1973209;73;21459;-77
2021/06/01 08:32:10;;;;;;;0.85;0.78;;;21.30;79.70;;;;;;1973230;73;21602;-77
2021/06/01 08:34:36;;;;;;;1.10;0.80;;;21.30;76.20;;;;;;1973169;73;21048;-77
2021/06/01 08:37:02;;;;;;;1.32;1.02;;;21.50;76.20;;;;;;1973194;73;21098;-77
2021/06/01 08:39:28;;;;;;;5.20;1.12;;;21.20;77.20;;;;;;1973192;73;21047;-77
2021/06/01 08:41:54;;;;;;;1.77;0.78;;;21.20;77.90;;;;;;1973184;73;21055;-77
2021/06/01 08:44:20;;;;;;;0.80;0.80;;;21.30;76.90;;;;;;1973048;73;21019;-77
2021/06/01 08:46:49;;;;;;;2.00;0.80;;;21.60;74.50;;;;;;1973275;73;21162;-76
2021/06/01 08:49:14;;;;;;;1.98;0.90;;;21.60;73.60;;;;;;1973323;71;21708;-76
2021/06/01 08:51:40;;;;;;;2.83;0.90;;;21.80;73.80;;;;;;1973075;73;21513;-75
2021/06/01 08:54:07;;;;;;;3.77;0.98;;;22.00;74.40;;;;;;1973437;73;21489;-75
2021/06/01 08:56:33;;;;;;;0.93;0.85;;;22.00;75.30;;;;;;2011183;71;20996;-75
2021/06/01 08:58:59;;;;;;;1.12;0.85;;;22.60;74.30;;;;;;1975512;72;21071;-75
2021/06/01 09:01:25;;;;;;;2.85;0.95;;;22.40;70.40;;;;;;1973659;72;21171;-75
2021/06/01 09:03:57;;;;;;;0.88;0.72;;;22.20;69.40;;;;;;1973637;72;21121;-75
2021/06/01 09:08:58;;;;;;;2.42;0.70;;;22.50;71.60;;;;;;1973242;73;21080;-75
2021/06/01 09:22:12;;;;;;;1.52;0.82;;;22.20;70.40;;;;;;1973007;73;21051;-75
2021/06/01 09:24:38;;;;;;;0.65;0.65;;;21.80;69.50;;;;;;1973302;73;21087;-75
2021/06/01 09:27:28;;;;;;;0.93;0.90;;;22.10;71.10;;;;;;1973087;73;21050;-74
2021/06/01 09:29:35;;;;;;;0.95;0.80;;;22.10;71.10;;;;;;1975442;71;21109;-75
2021/06/01 09:32:01;;;;;;;2.05;1.07;;;22.30;71.30;;;;;;1973146;73;21054;-75
2021/06/01 09:34:27;;;;;;;2.22;0.88;;;22.70;69.80;;;;;;1973217;73;21055;-75
2021/06/01 09:36:53;;;;;;;2.37;0.85;;;22.70;68.70;;;;;;1973158;73;21055;-75
2021/06/01 09:39:19;;;;;;;1.35;0.70;;;22.50;70.10;;;;;;1973299;73;21023;-75
2021/06/01 09:41:48;;;;;;;1.77;0.90;;;22.20;71.90;;;;;;1973338;73;21059;-74
2021/06/01 09:44:13;;;;;;;1.25;0.90;;;22.50;70.80;;;;;;1973250;71;21117;-74
2021/06/01 09:46:39;;;;;;;1.20;0.90;;;22.70;69.10;;;;;;1973383;73;21166;-75
2021/06/01 09:49:06;;;;;;;1.98;0.95;;;22.90;68.00;;;;;;1973301;73;21027;-75
2021/06/01 09:51:34;;;;;;;1.37;0.70;;;22.90;69.40;;;;;;1973363;73;21092;-74
2021/06/01 09:53:59;;;;;;;0.98;0.80;;;22.80;69.90;;;;;;1973298;71;21472;-74
2021/06/01 09:56:26;;;;;;;1.92;0.85;;;22.70;70.60;;;;;;1973399;73;21519;-75
2021/06/01 09:58:52;;;;;;;0.72;0.72;;;22.70;70.00;;;;;;1973200;73;21055;-74
2021/06/01 10:01:18;;;;;;;4.10;0.90;;;22.70;70.60;;;;;;1973551;73;21075;-75
2021/06/01 10:03:46;;;;;;;2.10;1.07;;;23.00;68.80;;;;;;1973422;73;21153;-75
2021/06/01 10:06:12;;;;;;;1.67;0.78;;;23.10;68.30;;;;;;1973359;71;21095;-74
2021/06/01 10:08:39;;;;;;;1.17;0.65;;;23.50;66.60;;;;;;1973110;73;21028;-75
2021/06/01 10:11:05;;;;;;;0.80;0.80;;;23.40;65.40;;;;;;1973376;73;21190;-75
2021/06/01 10:13:32;;;;;;;0.80;0.65;;;23.30;65.20;;;;;;1974779;73;21067;-73
2021/06/01 10:15:58;;;;;;;0.98;0.85;;;22.90;66.30;;;;;;2011465;71;21023;-75
2021/06/01 10:18:28;;;;;;;0.80;0.80;;;23.10;67.50;;;;;;1974919;73;21063;-75
2021/06/01 10:20:52;;;;;;;1.75;1.12;;;23.00;66.30;;;;;;1974390;71;21518;-74
2021/06/01 10:23:29;;;;;;;1.07;0.90;;;22.70;68.30;;;;;;1973104;73;21019;-76
2021/06/01 10:25:49;;;;;;;1.37;0.80;;;22.90;67.70;;;;;;1974633;71;21165;-74
2021/06/01 10:28:23;;;;;;;0.95;0.85;;;23.50;66.50;;;;;;1973140;73;21427;-75
2021/06/01 10:30:43;;;;;;;1.30;0.82;;;23.10;66.90;;;;;;1975187;71;21165;-74
2021/06/01 10:33:09;;;;;;;1.37;0.90;;;23.40;63.90;;;;;;1973312;73;21080;-76
2021/06/01 10:35:36;;;;;;;0.98;0.80;;;23.20;64.10;;;;;;1973280;73;21136;-74
2021/06/01 10:49:27;;;;;;;1.07;0.70;;;24.00;62.80;;;;;;1973174;73;21126;-75
2021/06/01 10:51:29;;;;;;;0.95;0.90;;;23.70;62.00;;;;;;1978279;71;21465;-75
2021/06/01 10:53:55;;;;;;;0.95;0.80;;;23.40;61.30;;;;;;1973237;72;21141;-75
2021/06/01 10:56:21;;;;;;;1.85;0.90;;;23.60;62.80;;;;;;1973206;73;21024;-75
2021/06/01 10:58:53;;;;;;;1.98;0.88;;;23.80;63.20;;;;;;1973001;73;21132;-75
2021/06/01 11:04:00;;;;;;;1.75;0.75;;;23.60;61.40;;;;;;1975094;72;21059;-76
2021/06/01 11:06:27;;;;;;;2.15;0.95;;;23.60;60.00;;;;;;1980088;72;21110;-75
2021/06/01 11:08:53;;;;;;;1.65;0.93;;;23.80;63.40;;;;;;1975482;72;21059;-75
2021/06/01 11:11:19;;;;;;;2.75;0.90;;;24.00;60.00;;;;;;1974158;72;21024;-75
2021/06/01 11:13:45;;;;;;;3.10;0.90;;;24.10;61.90;;;;;;1975388;72;21124;-75
2021/06/01 11:16:12;;;;;;;2.42;1.10;;;24.40;61.40;;;;;;1974282;72;21062;-76
2021/06/01 11:18:40;;;;;;;1.00;0.70;;;24.40;59.90;;;;;;1972936;73;21051;-76
2021/06/01 11:21:08;;;;;;;3.52;1.20;;;24.60;62.00;;;;;;1975307;71;21523;-76
2021/06/01 11:23:43;;;;;;;1.20;0.80;;;24.30;60.40;;;;;;1973272;71;21098;-77
2021/06/01 11:34:00;;;;;;;1.17;0.90;;;24.20;60.60;;;;;;1973253;73;21054;-74
2021/06/01 11:36:27;;;;;;;3.90;0.90;;;24.10;61.50;;;;;;1973055;73;21059;-74
2021/06/01 11:38:56;;;;;;;1.82;0.85;;;24.30;62.80;;;;;;1973189;73;21062;-76
2021/06/01 11:44:05;;;;;;;8.08;1.00;;;24.60;60.20;;;;;;1972954;73;21038;-74
2021/06/01 11:46:46;;;;;;;1.37;0.90;;;24.30;60.50;;;;;;1973045;73;21087;-74
2021/06/01 11:51:52;;;;;;;1.75;0.95;;;23.80;60.80;;;;;;1973188;73;21452;-74
2021/06/01 11:54:18;;;;;;;1.17;0.68;;;24.40;59.30;;;;;;1973078;73;21487;-75
2021/06/01 11:57:07;;;;;;;9.08;0.80;;;24.60;59.10;;;;;;1973284;73;21500;-74
2021/06/01 12:02:26;;;;;;;2.95;1.00;;;24.90;59.10;;;;;;1973355;73;21048;-74
2021/06/01 12:17:56;;;;;;;1.95;0.95;;;25.20;57.70;;;;;;1973191;73;21075;-74
2021/06/01 12:20:22;;;;;;;1.95;0.93;;;24.90;58.00;;;;;;1973133;73;21083;-75
2021/06/01 12:22:48;;;;;;;0.85;0.85;;;25.20;58.00;;;;;;1973172;73;21153;-75
2021/06/01 12:25:16;;;;;;;0.72;0.70;;;25.50;57.70;;;;;;1973235;73;21091;-75
2021/06/01 12:27:50;;;;;;;3.08;1.10;;;25.80;57.50;;;;;;1973125;71;21480;-74
2021/06/01 12:30:59;;;;;;;2.58;0.80;;;25.70;58.70;;;;;;1975169;71;21100;-74
2021/06/01 12:32:37;;;;;;;5.70;0.95;;;25.80;56.40;;;;;;1975878;71;21157;-75
2021/06/01 12:43:06;;;;;;;1.10;0.82;;;26.40;55.40;;;;;;1973196;73;21051;-75
2021/06/01 12:45:41;;;;;;;2.98;1.10;;;26.80;55.80;;;;;;1973733;71;21542;-75
2021/06/01 13:05:26;;;;;;;0.62;0.62;;;27.10;54.40;;;;;;1974926;71;21488;-75
2021/06/01 13:07:38;;;;;;;3.45;1.15;;;27.10;52.20;;;;;;1973091;73;21210;-75
2021/06/01 13:12:09;;;;;;;0.60;0.60;;;27.40;50.80;;;;;;1973076;73;21165;-74
2021/06/01 13:19:58;;;;;;;0.60;0.57;;;28.50;47.80;;;;;;1973215;73;21049;-74
2021/06/01 13:22:41;;;;;;;2.20;1.02;;;28.60;47.50;;;;;;1974073;71;21092;-74
2021/06/01 13:30:19;;;;;;;2.75;0.80;;;28.90;45.70;;;;;;1979459;72;21028;-74
2021/06/01 13:36:22;;;;;;;1.60;0.70;;;27.60;46.80;;;;;;1974684;71;21477;-74
2021/06/01 13:46:07;;;;;;;1.47;0.80;;;27.70;48.10;;;;;;1973127;73;21128;-74
2021/06/01 13:48:50;;;;;;;1.27;0.80;;;27.20;49.20;;;;;;1974076;71;21087;-74
2021/06/01 13:51:27;;;;;;;10.23;1.07;;;28.10;48.00;;;;;;1976000;71;21468;-73
2021/06/01 13:56:29;;;;;;;0.78;0.70;;;28.50;48.70;;;;;;1973192;73;21084;-74
2021/06/01 14:01:31;;;;;;;1.85;1.02;;;28.80;47.10;;;;;;1973161;73;21072;-73
2021/06/01 14:09:43;;;;;;;1.15;0.80;;;29.90;44.40;;;;;;1973266;73;21055;-75
2021/06/01 14:29:08;;;;;;;1.77;0.88;;;29.10;45.80;;;;;;1973206;73;21496;-74
2021/06/01 14:36:20;;;;;;;2.15;0.70;;;30.10;44.60;;;;;;1973053;73;21492;-75
2021/06/01 15:32:52;;;;;;;0.80;0.80;;;31.30;41.70;;;;;;1974181;72;21165;-74
2021/06/01 15:41:18;;;;;;;2.65;0.70;;;31.20;41.80;;;;;;1973129;73;21031;-74
2021/06/01 16:42:00;;;;;;;0.95;0.70;;;28.80;43.40;;;;;;1972936;73;21088;-73
2021/06/01 17:03:53;;;;;;;0.78;0.78;;;28.30;42.30;;;;;;1973167;73;21035;-74
2021/06/01 17:06:20;;;;;;;0.88;0.88;;;28.40;42.90;;;;;;1975011;71;21077;-75
2021/06/01 17:11:20;;;;;;;3.90;0.55;;;28.90;41.80;;;;;;1973125;73;21178;-76
2021/06/01 17:13:47;;;;;;;0.88;0.65;;;28.80;42.00;;;;;;1973179;73;21484;-77
2021/06/01 17:16:24;;;;;;;1.07;0.60;;;29.20;41.70;;;;;;1973125;73;21556;-76
2021/06/01 17:21:38;;;;;;;1.57;1.05;;;28.80;41.40;;;;;;1973013;73;21091;-76
2021/06/01 17:24:00;;;;;;;0.65;0.65;;;28.90;41.50;;;;;;1977070;71;21084;-74
2021/06/01 17:32:14;;;;;;;4.12;0.80;;;28.10;44.60;;;;;;1971936;72;21659;-76
2021/06/01 17:34:37;;;;;;;1.35;0.75;;;28.30;43.40;;;;;;1967288;73;21088;-76
2021/06/01 17:37:01;;;;;;;1.85;0.68;;;27.90;44.60;;;;;;1974630;71;21158;-76
2021/06/01 17:39:27;;;;;;;7.60;0.82;;;28.20;44.60;;;;;;1973005;73;21059;-76